sensor_id;sensor_type;location;lat;lon;timestamp;pressure;altitude;pressure_sealevel;temperature;humidity
46267;BME280;31998;48.798;15.066;2022-10-04T00:02:54;96321.34;;;8.87;100.00
46267;BME280;31998;48.798;15.066;2022-10-04T00:05:23;96320.28;;;8.88;100.00
46267;BME280;31998;48.798;15.066;2022-10-04T00:07:53;96316.00;;;8.87;100.00
46267;BME280;31998;48.798;15.066;2022-10-04T00:10:23;96320.81;;;8.90;100.00
46267;BME280;31998;48.798;15.066;2022-10-04T00:12:55;96321.91;;;8.94;100.00
46267;BME280;31998;48.798;15.066;2022-10-04T00:15:25;96313.84;;;8.94;100.00
46267;BME280;31998;48.798;15.066;2022-10-04T00:23:26;96315.47;;;9.06;100.00
46267;BME280;31998;48.798;15.066;2022-10-04T00:36:52;96319.28;;;9.10;100.00
46267;BME280;31998;48.798;15.066;2022-10-04T00:42:12;96307.19;;;9.07;100.00
46267;BME280;31998;48.798;15.066;2022-10-04T00:44:48;96312.00;;;9.05;100.00
46267;BME280;31998;48.798;15.066;2022-10-04T00:50:01;96306.91;;;9.04;100.00
46267;BME280;31998;48.798;15.066;2022-10-04T00:52:34;96307.97;;;9.03;100.00
46267;BME280;31998;48.798;15.066;2022-10-04T00:55:06;96297.22;;;9.03;100.00
46267;BME280;31998;48.798;15.066;2022-10-04T01:00:05;96296.69;;;9.06;100.00
46267;BME280;31998;48.798;15.066;2022-10-04T01:02:37;96300.44;;;9.05;100.00
46267;BME280;31998;48.798;15.066;2022-10-04T01:05:45;96292.66;;;9.03;100.00
46267;BME280;31998;48.798;15.066;2022-10-04T01:08:14;96294.00;;;9.06;100.00
46267;BME280;31998;48.798;15.066;2022-10-04T01:10:53;96288.09;;;9.04;100.00
46267;BME280;31998;48.798;15.066;2022-10-04T01:16:12;96285.44;;;9.09;100.00
46267;BME280;31998;48.798;15.066;2022-10-04T01:18:38;96279.28;;;9.13;100.00
46267;BME280;31998;48.798;15.066;2022-10-04T01:28:59;96276.59;;;9.13;100.00
46267;BME280;31998;48.798;15.066;2022-10-04T01:31:30;96283.84;;;9.13;100.00
46267;BME280;31998;48.798;15.066;2022-10-04T01:33:56;96267.44;;;9.09;100.00
46267;BME280;31998;48.798;15.066;2022-10-04T01:36:23;96270.41;;;9.13;100.00
46267;BME280;31998;48.798;15.066;2022-10-04T01:38:50;96274.72;;;9.14;100.00
46267;BME280;31998;48.798;15.066;2022-10-04T01:41:18;96281.16;;;9.18;100.00
46267;BME280;31998;48.798;15.066;2022-10-04T01:43:47;96274.69;;;9.19;100.00
46267;BME280;31998;48.798;15.066;2022-10-04T01:46:32;96266.09;;;9.17;100.00
46267;BME280;31998;48.798;15.066;2022-10-04T01:49:06;96270.97;;;9.20;100.00
46267;BME280;31998;48.798;15.066;2022-10-04T01:51:59;96269.63;;;9.22;100.00
46267;BME280;31998;48.798;15.066;2022-10-04T01:54:37;96269.34;;;9.24;100.00
46267;BME280;31998;48.798;15.066;2022-10-04T01:57:33;96263.16;;;9.18;100.00
46267;BME280;31998;48.798;15.066;2022-10-04T02:00:04;96267.72;;;9.23;100.00
46267;BME280;31998;48.798;15.066;2022-10-04T02:03:13;96265.84;;;9.23;100.00
46267;BME280;31998;48.798;15.066;2022-10-04T02:05:38;96262.88;;;9.25;100.00
46267;BME280;31998;48.798;15.066;2022-10-04T02:08:08;96266.66;;;9.24;100.00
46267;BME280;31998;48.798;15.066;2022-10-04T02:10:35;96255.09;;;9.23;100.00
46267;BME280;31998;48.798;15.066;2022-10-04T02:13:08;96263.97;;;9.24;100.00
46267;BME280;31998;48.798;15.066;2022-10-04T02:15:36;96260.47;;;9.23;100.00
46267;BME280;31998;48.798;15.066;2022-10-04T02:18:09;96255.91;;;9.19;100.00
46267;BME280;31998;48.798;15.066;2022-10-04T02:20:38;96262.63;;;9.21;100.00
46267;BME280;31998;48.798;15.066;2022-10-04T02:23:05;96259.41;;;9.19;100.00
46267;BME280;31998;48.798;15.066;2022-10-04T02:25:31;96257.25;;;9.21;100.00
46267;BME280;31998;48.798;15.066;2022-10-04T02:27:56;96251.88;;;9.21;100.00
46267;BME280;31998;48.798;15.066;2022-10-04T02:30:22;96259.69;;;9.23;100.00
46267;BME280;31998;48.798;15.066;2022-10-04T02:32:52;96245.44;;;9.17;100.00
46267;BME280;31998;48.798;15.066;2022-10-04T02:35:30;96259.41;;;9.24;100.00
46267;BME280;31998;48.798;15.066;2022-10-04T02:38:08;96255.09;;;9.23;100.00
46267;BME280;31998;48.798;15.066;2022-10-04T02:40:43;96254.31;;;9.23;100.00
46267;BME280;31998;48.798;15.066;2022-10-04T02:43:20;96251.09;;;9.21;100.00
46267;BME280;31998;48.798;15.066;2022-10-04T02:51:18;96256.47;;;9.21;100.00
46267;BME280;31998;48.798;15.066;2022-10-04T02:53:51;96246.22;;;9.18;100.00
46267;BME280;31998;48.798;15.066;2022-10-04T02:56:18;96243.03;;;9.21;100.00
46267;BME280;31998;48.798;15.066;2022-10-04T02:58:45;96240.34;;;9.16;100.00
46267;BME280;31998;48.798;15.066;2022-10-04T03:01:26;96254.03;;;9.19;100.00
46267;BME280;31998;48.798;15.066;2022-10-04T03:03:54;96236.03;;;9.15;100.00
46267;BME280;31998;48.798;15.066;2022-10-04T03:06:21;96242.47;;;9.19;100.00
46267;BME280;31998;48.798;15.066;2022-10-04T03:08:52;96244.91;;;9.15;100.00
46267;BME280;31998;48.798;15.066;2022-10-04T03:11:21;96244.09;;;9.15;100.00
46267;BME280;31998;48.798;15.066;2022-10-04T03:13:53;96240.03;;;9.12;100.00
46267;BME280;31998;48.798;15.066;2022-10-04T03:16:21;96243.56;;;9.13;100.00
46267;BME280;31998;48.798;15.066;2022-10-04T03:18:47;96244.63;;;9.17;100.00
46267;BME280;31998;48.798;15.066;2022-10-04T03:21:16;96253.50;;;9.17;100.00
46267;BME280;31998;48.798;15.066;2022-10-04T03:23:44;96248.38;;;9.16;100.00
46267;BME280;31998;48.798;15.066;2022-10-04T03:26:33;96253.22;;;9.14;100.00
46267;BME280;31998;48.798;15.066;2022-10-04T03:29:05;96253.75;;;9.16;100.00
46267;BME280;31998;48.798;15.066;2022-10-04T03:31:38;96255.91;;;9.14;100.00
46267;BME280;31998;48.798;15.066;2022-10-04T03:34:20;96257.00;;;9.13;100.00
46267;BME280;31998;48.798;15.066;2022-10-04T03:36:47;96245.19;;;9.14;100.00
46267;BME280;31998;48.798;15.066;2022-10-04T03:39:31;96250.53;;;9.19;100.00
46267;BME280;31998;48.798;15.066;2022-10-04T03:42:02;96250.81;;;9.17;100.00
46267;BME280;31998;48.798;15.066;2022-10-04T03:44:29;96241.94;;;9.12;100.00
46267;BME280;31998;48.798;15.066;2022-10-04T03:46:56;96250.81;;;9.17;100.00
46267;BME280;31998;48.798;15.066;2022-10-04T03:49:30;96250.53;;;9.14;100.00
46267;BME280;31998;48.798;15.066;2022-10-04T03:51:57;96254.31;;;9.13;100.00
46267;BME280;31998;48.798;15.066;2022-10-04T03:54:25;96258.06;;;9.17;100.00
46267;BME280;31998;48.798;15.066;2022-10-04T03:56:53;96262.91;;;9.15;100.00
46267;BME280;31998;48.798;15.066;2022-10-04T03:59:19;96247.31;;;9.12;100.00
46267;BME280;31998;48.798;15.066;2022-10-04T04:01:59;96257.53;;;9.15;100.00
46267;BME280;31998;48.798;15.066;2022-10-04T04:07:20;96261.28;;;9.14;100.00
46267;BME280;31998;48.798;15.066;2022-10-04T04:09:58;96253.22;;;9.14;100.00
46267;BME280;31998;48.798;15.066;2022-10-04T04:12:57;96262.09;;;9.14;100.00
46267;BME280;31998;48.798;15.066;2022-10-04T04:15:28;96262.91;;;9.15;100.00
46267;BME280;31998;48.798;15.066;2022-10-04T04:17:59;96269.88;;;9.16;100.00
46267;BME280;31998;48.798;15.066;2022-10-04T04:20:39;96271.47;;;9.17;100.00
46267;BME280;31998;48.798;15.066;2022-10-04T04:25:38;96269.88;;;9.16;100.00
46267;BME280;31998;48.798;15.066;2022-10-04T04:28:30;96267.19;;;9.16;100.00
46267;BME280;31998;48.798;15.066;2022-10-04T04:31:04;96261.28;;;9.14;100.00
46267;BME280;31998;48.798;15.066;2022-10-04T04:33:44;96263.69;;;9.15;100.00
46267;BME280;31998;48.798;15.066;2022-10-04T04:36:14;96266.66;;;9.14;100.00
46267;BME280;31998;48.798;15.066;2022-10-04T04:38:39;96269.06;;;9.10;100.00
46267;BME280;31998;48.798;15.066;2022-10-04T04:41:27;96267.16;;;9.11;100.00
46267;BME280;31998;48.798;15.066;2022-10-04T04:43:53;96262.34;;;9.08;100.00
46267;BME280;31998;48.798;15.066;2022-10-04T04:46:19;96263.16;;;9.13;100.00
46267;BME280;31998;48.798;15.066;2022-10-04T04:48:47;96261.53;;;9.12;100.00
46267;BME280;31998;48.798;15.066;2022-10-04T04:51:20;96271.22;;;9.13;100.00
46267;BME280;31998;48.798;15.066;2022-10-04T04:53:47;96258.03;;;9.12;100.00
46267;BME280;31998;48.798;15.066;2022-10-04T04:56:17;96262.06;;;9.09;100.00
46267;BME280;31998;48.798;15.066;2022-10-04T04:58:45;96268.25;;;9.15;100.00
46267;BME280;31998;48.798;15.066;2022-10-04T05:01:27;96268.25;;;9.15;100.00
46267;BME280;31998;48.798;15.066;2022-10-04T05:06:38;96267.19;;;9.16;100.00
46267;BME280;31998;48.798;15.066;2022-10-04T05:09:05;96269.88;;;9.16;100.00
46267;BME280;31998;48.798;15.066;2022-10-04T05:11:35;96261.28;;;9.14;100.00
46267;BME280;31998;48.798;15.066;2022-10-04T05:14:07;96271.47;;;9.17;100.00
46267;BME280;31998;48.798;15.066;2022-10-04T05:16:44;96272.28;;;9.17;100.00
46267;BME280;31998;48.798;15.066;2022-10-04T05:19:32;96279.25;;;9.18;100.00
46267;BME280;31998;48.798;15.066;2022-10-04T05:22:11;96272.84;;;9.19;100.00
46267;BME280;31998;48.798;15.066;2022-10-04T05:24:40;96275.25;;;9.21;100.00
46267;BME280;31998;48.798;15.066;2022-10-04T05:27:24;96274.69;;;9.19;100.00
46267;BME280;31998;48.798;15.066;2022-10-04T05:33:14;96276.84;;;9.17;100.00
46267;BME280;31998;48.798;15.066;2022-10-04T05:35:57;96276.88;;;9.22;100.00
46267;BME280;31998;48.798;15.066;2022-10-04T05:41:33;96285.44;;;9.24;100.00
46267;BME280;31998;48.798;15.066;2022-10-04T05:44:00;96287.06;;;9.25;100.00
46267;BME280;31998;48.798;15.066;2022-10-04T05:46:32;96291.91;;;9.28;100.00
46267;BME280;31998;48.798;15.066;2022-10-04T05:49:06;96281.97;;;9.23;100.00
46267;BME280;31998;48.798;15.066;2022-10-04T05:51:34;96288.69;;;9.31;100.00
46267;BME280;31998;48.798;15.066;2022-10-04T05:54:12;96297.31;;;9.33;100.00
46267;BME280;31998;48.798;15.066;2022-10-04T05:56:53;96300.53;;;9.35;100.00
46267;BME280;31998;48.798;15.066;2022-10-04T05:59:49;96297.84;;;9.35;100.00
46267;BME280;31998;48.798;15.066;2022-10-04T06:05:46;96303.22;;;9.40;100.00
46267;BME280;31998;48.798;15.066;2022-10-04T06:10:51;96310.47;;;9.45;100.00
46267;BME280;31998;48.798;15.066;2022-10-04T06:24:21;96328.50;;;9.60;100.00
46267;BME280;31998;48.798;15.066;2022-10-04T06:27:26;96324.75;;;9.66;100.00
46267;BME280;31998;48.798;15.066;2022-10-04T06:30:02;96322.31;;;9.69;100.00
46267;BME280;31998;48.798;15.066;2022-10-04T06:32:31;96319.91;;;9.73;100.00
46267;BME280;31998;48.798;15.066;2022-10-04T06:54:45;96324.69;;;10.17;100.00
46267;BME280;31998;48.798;15.066;2022-10-04T07:00:21;96320.69;;;10.19;100.00
46267;BME280;31998;48.798;15.066;2022-10-04T07:03:13;96337.63;;;10.30;100.00
46267;BME280;31998;48.798;15.066;2022-10-04T07:06:10;96333.31;;;10.34;100.00
46267;BME280;31998;48.798;15.066;2022-10-04T07:08:46;96331.16;;;10.36;100.00
46267;BME280;31998;48.798;15.066;2022-10-04T07:16:45;96352.13;;;10.49;100.00
46267;BME280;31998;48.798;15.066;2022-10-04T07:21:59;96346.16;;;10.63;100.00
46267;BME280;31998;48.798;15.066;2022-10-04T07:27:45;96336.97;;;10.79;100.00
46267;BME280;31998;48.798;15.066;2022-10-04T07:30:15;96346.88;;;10.94;100.00
46267;BME280;31998;48.798;15.066;2022-10-04T07:32:45;96343.91;;;10.95;100.00
46267;BME280;31998;48.798;15.066;2022-10-04T07:35:34;96356.25;;;11.06;100.00
46267;BME280;31998;48.798;15.066;2022-10-04T07:43:29;96354.56;;;11.21;100.00
46267;BME280;31998;48.798;15.066;2022-10-04T07:46:09;96355.91;;;11.28;100.00
46267;BME280;31998;48.798;15.066;2022-10-04T07:48:39;96355.59;;;11.35;100.00
46267;BME280;31998;48.798;15.066;2022-10-04T07:51:23;96357.44;;;11.34;100.00
46267;BME280;31998;48.798;15.066;2022-10-04T07:54:58;96356.69;;;11.29;100.00
46267;BME280;31998;48.798;15.066;2022-10-04T08:00:15;96362.03;;;11.39;100.00
46267;BME280;31998;48.798;15.066;2022-10-04T08:05:20;96361.38;;;11.57;100.00
46267;BME280;31998;48.798;15.066;2022-10-04T08:08:10;96367.84;;;11.56;100.00
46267;BME280;31998;48.798;15.066;2022-10-04T08:10:54;96366.16;;;11.65;100.00
46267;BME280;31998;48.798;15.066;2022-10-04T08:16:31;96377.19;;;11.74;100.00
46267;BME280;31998;48.798;15.066;2022-10-04T08:19:49;96376.34;;;11.84;100.00
46267;BME280;31998;48.798;15.066;2022-10-04T08:25:17;96381.13;;;11.92;100.00
46267;BME280;31998;48.798;15.066;2022-10-04T08:28:01;96377.63;;;11.91;100.00
46267;BME280;31998;48.798;15.066;2022-10-04T08:36:26;96375.66;;;12.02;100.00
46267;BME280;31998;48.798;15.066;2022-10-04T08:38:56;96367.00;;;12.05;100.00
46267;BME280;31998;48.798;15.066;2022-10-04T08:41:44;96379.91;;;12.13;100.00
46267;BME280;31998;48.798;15.066;2022-10-04T08:59:22;96382.66;;;12.37;100.00
46267;BME280;31998;48.798;15.066;2022-10-04T09:02:10;96385.56;;;12.46;100.00
46267;BME280;31998;48.798;15.066;2022-10-04T09:04:59;96378.09;;;12.62;100.00
46267;BME280;31998;48.798;15.066;2022-10-04T09:07:56;96384.25;;;12.67;100.00
46267;BME280;31998;48.798;15.066;2022-10-04T09:13:40;96377.88;;;12.82;100.00
46267;BME280;31998;48.798;15.066;2022-10-04T09:19:14;96380.66;;;13.01;100.00
46267;BME280;31998;48.798;15.066;2022-10-04T09:30:13;96374.13;;;13.69;100.00
46267;BME280;31998;48.798;15.066;2022-10-04T09:52:51;96384.09;;;14.25;100.00
46267;BME280;31998;48.798;15.066;2022-10-04T09:55:43;96379.59;;;14.66;100.00
46267;BME280;31998;48.798;15.066;2022-10-04T10:23:55;96385.94;;;15.44;100.00
46267;BME280;31998;48.798;15.066;2022-10-04T10:48:56;96400.88;;;14.73;100.00
46267;BME280;31998;48.798;15.066;2022-10-04T10:54:28;96406.63;;;14.85;100.00
46267;BME280;31998;48.798;15.066;2022-10-04T11:05:43;96402.84;;;14.54;100.00
46267;BME280;31998;48.798;15.066;2022-10-04T11:13:56;96388.28;;;15.65;100.00
46267;BME280;31998;48.798;15.066;2022-10-04T11:31:36;96386.47;;;15.19;100.00
46267;BME280;31998;48.798;15.066;2022-10-04T11:40:12;96379.13;;;14.78;100.00
46267;BME280;31998;48.798;15.066;2022-10-04T11:53:58;96373.75;;;16.28;100.00
46267;BME280;31998;48.798;15.066;2022-10-04T11:59:47;96369.09;;;15.97;100.00
46267;BME280;31998;48.798;15.066;2022-10-04T12:13:44;96375.13;;;15.17;100.00
46267;BME280;31998;48.798;15.066;2022-10-04T12:21:50;96372.09;;;14.63;100.00
46267;BME280;31998;48.798;15.066;2022-10-04T12:24:50;96375.41;;;14.74;100.00
46267;BME280;31998;48.798;15.066;2022-10-04T12:38:48;96380.31;;;14.72;100.00
46267;BME280;31998;48.798;15.066;2022-10-04T12:52:19;96356.88;;;16.31;100.00
46267;BME280;31998;48.798;15.066;2022-10-04T12:57:52;96365.94;;;15.68;100.00
46267;BME280;31998;48.798;15.066;2022-10-04T13:00:24;96360.25;;;15.28;100.00
46267;BME280;31998;48.798;15.066;2022-10-04T13:03:02;96372.81;;;15.24;100.00
46267;BME280;31998;48.798;15.066;2022-10-04T13:05:47;96366.81;;;15.00;100.00
46267;BME280;31998;48.798;15.066;2022-10-04T13:13:35;96372.31;;;15.08;100.00
46267;BME280;31998;48.798;15.066;2022-10-04T13:26:56;96364.38;;;14.98;100.00
46267;BME280;31998;48.798;15.066;2022-10-04T13:29:58;96369.63;;;14.95;100.00
46267;BME280;31998;48.798;15.066;2022-10-04T13:32:34;96375.44;;;15.02;100.00
46267;BME280;31998;48.798;15.066;2022-10-04T13:38:08;96374.63;;;15.15;100.00
46267;BME280;31998;48.798;15.066;2022-10-04T13:40:43;96376.84;;;15.13;100.00
46267;BME280;31998;48.798;15.066;2022-10-04T13:51:38;96367.41;;;14.97;100.00
46267;BME280;31998;48.798;15.066;2022-10-04T14:00:12;96370.59;;;14.85;100.00
46267;BME280;31998;48.798;15.066;2022-10-04T14:42:50;96353.31;;;17.24;100.00
46267;BME280;31998;48.798;15.066;2022-10-04T14:45:40;96345.69;;;17.34;100.00
46267;BME280;31998;48.798;15.066;2022-10-04T14:48:22;96346.28;;;17.31;100.00
46267;BME280;31998;48.798;15.066;2022-10-04T15:07:48;96364.19;;;17.15;100.00
46267;BME280;31998;48.798;15.066;2022-10-04T15:10:28;96356.19;;;16.79;100.00
46267;BME280;31998;48.798;15.066;2022-10-04T15:13:02;96371.75;;;16.65;100.00
46267;BME280;31998;48.798;15.066;2022-10-04T15:15:55;96363.50;;;16.70;100.00
46267;BME280;31998;48.798;15.066;2022-10-04T15:21:28;96361.91;;;16.46;100.00
46267;BME280;31998;48.798;15.066;2022-10-04T15:24:09;96371.75;;;16.65;100.00
46267;BME280;31998;48.798;15.066;2022-10-04T15:27:01;96372.25;;;16.89;100.00
46267;BME280;31998;48.798;15.066;2022-10-04T15:35:12;96365.13;;;17.11;100.00
46267;BME280;31998;48.798;15.066;2022-10-04T15:37:48;96362.41;;;17.11;100.00
46267;BME280;31998;48.798;15.066;2022-10-04T15:40:24;96361.53;;;17.01;100.00
46267;BME280;31998;48.798;15.066;2022-10-04T15:54:38;96384.16;;;15.40;100.00
46267;BME280;31998;48.798;15.066;2022-10-04T16:05:37;96396.28;;;14.41;100.00
46267;BME280;31998;48.798;15.066;2022-10-04T16:24:42;96396.22;;;12.85;100.00
46267;BME280;31998;48.798;15.066;2022-10-04T16:27:47;96404.25;;;12.66;100.00
46267;BME280;31998;48.798;15.066;2022-10-04T16:30:32;96399.53;;;12.53;100.00
46267;BME280;31998;48.798;15.066;2022-10-04T16:56:11;96417.75;;;10.84;100.00
46267;BME280;31998;48.798;15.066;2022-10-04T16:58:59;96413.97;;;10.75;100.00
46267;BME280;31998;48.798;15.066;2022-10-04T17:09:47;96423.19;;;10.33;100.00
46267;BME280;31998;48.798;15.066;2022-10-04T17:23:26;96427.69;;;9.82;100.00
46267;BME280;31998;48.798;15.066;2022-10-04T17:34:18;96405.63;;;9.59;100.00
46267;BME280;31998;48.798;15.066;2022-10-04T17:36:51;96418.25;;;9.59;100.00
46267;BME280;31998;48.798;15.066;2022-10-04T17:39:43;96423.00;;;9.36;100.00
46267;BME280;31998;48.798;15.066;2022-10-04T17:47:57;96434.75;;;9.15;100.00
46267;BME280;31998;48.798;15.066;2022-10-04T17:54:11;96440.66;;;9.17;100.00
46267;BME280;31998;48.798;15.066;2022-10-04T17:59:50;96433.44;;;8.70;100.00
46267;BME280;31998;48.798;15.066;2022-10-04T18:02:41;96441.41;;;8.55;100.00
46267;BME280;31998;48.798;15.066;2022-10-04T18:05:22;96447.84;;;8.59;100.00
46267;BME280;31998;48.798;15.066;2022-10-04T18:10:33;96444.63;;;8.57;100.00
46267;BME280;31998;48.798;15.066;2022-10-04T18:18:56;96457.72;;;8.48;100.00
46267;BME280;31998;48.798;15.066;2022-10-04T18:21:29;96449.78;;;8.63;100.00
46267;BME280;31998;48.798;15.066;2022-10-04T18:24:15;96461.84;;;8.61;100.00
46267;BME280;31998;48.798;15.066;2022-10-04T18:29:44;96457.50;;;8.23;100.00
46267;BME280;31998;48.798;15.066;2022-10-04T18:35:00;96461.84;;;7.75;100.00
46267;BME280;31998;48.798;15.066;2022-10-04T18:37:34;96467.41;;;7.68;100.00
46267;BME280;31998;48.798;15.066;2022-10-04T18:42:46;96471.09;;;7.62;100.00
46267;BME280;31998;48.798;15.066;2022-10-04T18:45:17;96468.81;;;7.71;100.00
46267;BME280;31998;48.798;15.066;2022-10-04T18:47:46;96457.47;;;7.91;100.00
46267;BME280;31998;48.798;15.066;2022-10-04T18:50:35;96464.47;;;8.24;100.00
46267;BME280;31998;48.798;15.066;2022-10-04T18:56:02;96462.31;;;7.94;100.00
46267;BME280;31998;48.798;15.066;2022-10-04T18:58:52;96470.66;;;7.70;100.00
46267;BME280;31998;48.798;15.066;2022-10-04T19:01:48;96459.16;;;7.48;100.00
46267;BME280;31998;48.798;15.066;2022-10-04T19:07:16;96471.84;;;7.30;100.00
46267;BME280;31998;48.798;15.066;2022-10-04T19:09:50;96474.50;;;7.30;100.00
46267;BME280;31998;48.798;15.066;2022-10-04T19:17:49;96464.66;;;7.58;100.00
46267;BME280;31998;48.798;15.066;2022-10-04T19:20:43;96470.88;;;7.42;100.00
46267;BME280;31998;48.798;15.066;2022-10-04T19:23:24;96465.09;;;7.28;100.00
46267;BME280;31998;48.798;15.066;2022-10-04T19:25:54;96463.59;;;7.15;100.00
46267;BME280;31998;48.798;15.066;2022-10-04T19:28:25;96456.44;;;6.99;100.00
46267;BME280;31998;48.798;15.066;2022-10-04T19:31:25;96470.31;;;6.96;100.00
46267;BME280;31998;48.798;15.066;2022-10-04T19:36:37;96463.78;;;6.70;100.00
46267;BME280;31998;48.798;15.066;2022-10-04T19:39:20;96463.22;;;6.68;100.00
46267;BME280;31998;48.798;15.066;2022-10-04T19:42:04;96466.88;;;6.78;100.00
46267;BME280;31998;48.798;15.066;2022-10-04T19:45:35;96470.56;;;6.94;100.00
46267;BME280;31998;48.798;15.066;2022-10-04T19:47:49;96474.47;;;7.08;100.00
46267;BME280;31998;48.798;15.066;2022-10-04T19:50:31;96464.88;;;6.91;100.00
46267;BME280;31998;48.798;15.066;2022-10-04T19:53:06;96464.75;;;6.80;100.00
46267;BME280;31998;48.798;15.066;2022-10-04T19:55:57;96474.66;;;6.63;100.00
46267;BME280;31998;48.798;15.066;2022-10-04T20:00:55;96475.72;;;6.62;100.00
46267;BME280;31998;48.798;15.066;2022-10-04T20:03:20;96487.56;;;6.66;100.00
46267;BME280;31998;48.798;15.066;2022-10-04T20:05:48;96490.06;;;6.56;100.00
46267;BME280;31998;48.798;15.066;2022-10-04T20:08:16;96489.75;;;6.52;100.00
46267;BME280;31998;48.798;15.066;2022-10-04T20:13:37;96489.25;;;6.56;100.00
46267;BME280;31998;48.798;15.066;2022-10-04T20:16:03;96491.03;;;6.50;100.00
46267;BME280;31998;48.798;15.066;2022-10-04T20:26:11;96499.72;;;6.57;100.00
46267;BME280;31998;48.798;15.066;2022-10-04T20:29:07;96498.34;;;6.38;100.00
46267;BME280;31998;48.798;15.066;2022-10-04T20:34:22;96512.13;;;6.46;100.00
46267;BME280;31998;48.798;15.066;2022-10-04T20:36:54;96509.84;;;6.55;100.00
46267;BME280;31998;48.798;15.066;2022-10-04T20:42:35;96514.84;;;6.68;100.00
46267;BME280;31998;48.798;15.066;2022-10-04T20:47:48;96526.44;;;6.07;100.00
46267;BME280;31998;48.798;15.066;2022-10-04T20:52:50;96541.34;;;5.91;100.00
46267;BME280;31998;48.798;15.066;2022-10-04T20:57:43;96531.13;;;5.88;100.00
46267;BME280;31998;48.798;15.066;2022-10-04T21:00:19;96531.84;;;5.83;100.00
46267;BME280;31998;48.798;15.066;2022-10-04T21:02:45;96537.75;;;5.85;100.00
46267;BME280;31998;48.798;15.066;2022-10-04T21:05:28;96528.81;;;5.80;100.00
46267;BME280;31998;48.798;15.066;2022-10-04T21:08:21;96520.22;;;5.61;100.00
46267;BME280;31998;48.798;15.066;2022-10-04T21:11:01;96529.25;;;5.60;100.00
46267;BME280;31998;48.798;15.066;2022-10-04T21:13:41;96533.38;;;5.39;100.00
46267;BME280;31998;48.798;15.066;2022-10-04T21:16:08;96532.34;;;5.28;100.00
46267;BME280;31998;48.798;15.066;2022-10-04T21:18:33;96520.38;;;5.31;100.00
46267;BME280;31998;48.798;15.066;2022-10-04T21:20:58;96530.53;;;5.57;100.00
46267;BME280;31998;48.798;15.066;2022-10-04T21:23:29;96513.28;;;5.48;100.00
46267;BME280;31998;48.798;15.066;2022-10-04T21:26:22;96508.19;;;5.75;100.00
46267;BME280;31998;48.798;15.066;2022-10-04T21:28:52;96519.97;;;5.62;100.00
46267;BME280;31998;48.798;15.066;2022-10-04T21:31:18;96516.88;;;5.42;100.00
46267;BME280;31998;48.798;15.066;2022-10-04T21:33:43;96499.03;;;5.31;100.00
46267;BME280;31998;48.798;15.066;2022-10-04T21:36:08;96514.03;;;5.20;100.00
46267;BME280;31998;48.798;15.066;2022-10-04T21:38:34;96507.25;;;4.89;100.00
46267;BME280;31998;48.798;15.066;2022-10-04T21:41:00;96524.88;;;4.78;100.00
46267;BME280;31998;48.798;15.066;2022-10-04T21:43:26;96525.56;;;4.97;100.00
46267;BME280;31998;48.798;15.066;2022-10-04T21:45:51;96514.28;;;5.07;100.00
46267;BME280;31998;48.798;15.066;2022-10-04T21:48:17;96508.69;;;5.08;100.00
46267;BME280;31998;48.798;15.066;2022-10-04T21:50:46;96521.03;;;5.09;100.00
46267;BME280;31998;48.798;15.066;2022-10-04T21:53:11;96531.09;;;5.07;100.00
46267;BME280;31998;48.798;15.066;2022-10-04T21:55:38;96526.13;;;4.99;100.00
46267;BME280;31998;48.798;15.066;2022-10-04T21:58:03;96522.53;;;5.05;100.00
46267;BME280;31998;48.798;15.066;2022-10-04T22:00:28;96511.28;;;4.92;100.00
46267;BME280;31998;48.798;15.066;2022-10-04T22:02:54;96504.34;;;4.79;100.00
46267;BME280;31998;48.798;15.066;2022-10-04T22:05:19;96519.84;;;4.94;100.00
46267;BME280;31998;48.798;15.066;2022-10-04T22:07:45;96527.16;;;5.10;100.00
46267;BME280;31998;48.798;15.066;2022-10-04T22:10:10;96525.25;;;5.34;100.00
46267;BME280;31998;48.798;15.066;2022-10-04T22:12:36;96516.63;;;5.55;100.00
46267;BME280;31998;48.798;15.066;2022-10-04T22:15:01;96512.22;;;5.49;100.00
46267;BME280;31998;48.798;15.066;2022-10-04T22:17:27;96514.50;;;5.29;100.00
46267;BME280;31998;48.798;15.066;2022-10-04T22:19:52;96524.69;;;5.20;100.00
46267;BME280;31998;48.798;15.066;2022-10-04T22:22:18;96535.53;;;4.90;100.00
46267;BME280;31998;48.798;15.066;2022-10-04T22:24:44;96541.78;;;4.60;100.00
46267;BME280;31998;48.798;15.066;2022-10-04T22:27:18;96537.72;;;4.46;100.00
46267;BME280;31998;48.798;15.066;2022-10-04T22:29:44;96545.91;;;4.33;100.00
46267;BME280;31998;48.798;15.066;2022-10-04T22:32:27;96535.25;;;4.33;100.00
46267;BME280;31998;48.798;15.066;2022-10-04T22:35:05;96545.25;;;4.73;100.00
46267;BME280;31998;48.798;15.066;2022-10-04T22:37:34;96541.56;;;4.97;100.00
46267;BME280;31998;48.798;15.066;2022-10-04T22:40:00;96534.72;;;4.89;100.00
46267;BME280;31998;48.798;15.066;2022-10-04T22:42:28;96538.06;;;4.61;100.00
46267;BME280;31998;48.798;15.066;2022-10-04T22:44:57;96533.88;;;4.42;100.00
46267;BME280;31998;48.798;15.066;2022-10-04T22:47:24;96553.13;;;4.44;100.00
46267;BME280;31998;48.798;15.066;2022-10-04T22:49:51;96554.50;;;4.35;100.00
46267;BME280;31998;48.798;15.066;2022-10-04T22:52:22;96558.09;;;4.41;100.00
46267;BME280;31998;48.798;15.066;2022-10-04T22:54:52;96563.56;;;4.57;100.00
46267;BME280;31998;48.798;15.066;2022-10-04T22:57:19;96548.63;;;4.80;100.00
46267;BME280;31998;48.798;15.066;2022-10-04T22:59:50;96551.06;;;4.70;100.00
46267;BME280;31998;48.798;15.066;2022-10-04T23:02:21;96553.84;;;4.51;100.00
46267;BME280;31998;48.798;15.066;2022-10-04T23:04:56;96549.75;;;4.37;100.00
46267;BME280;31998;48.798;15.066;2022-10-04T23:07:22;96555.19;;;4.42;100.00